Terminal Aerodrome Forecast
Issued by NWS

Home | Current Version | Previous Version | Text Only | Print | Product List | Glossary On
Versions: 1 2 3 4 5 6 7 8 9 10 11 12 13 14 15 16 17 18 19 20 21 22 23 24
000
FTUS44 KHGX 281241 AAA
TAFSGR
TAF AMD
KSGR 281241Z 2813/2912 19007KT P6SM OVC022
     FM281500 18011KT P6SM BKN028
     FM281700 19010KT P6SM VCSH SCT035
     FM290300 15005KT P6SM VCSH BKN025 BKN050
     FM290600 VRB06KT P6SM VCTS BKN020CB OVC250
      TEMPO 2909/2912 TSRA=

USA.gov is the U.S. government's official web portal to all federal, state and local government web resources and services.